sensor_id;sensor_type;location;lat;lon;timestamp;temperature;humidity
22202;DHT22;11266;51.522;6.302;2023-07-13T00:00:42;16.80;99.90
22202;DHT22;11266;51.522;6.302;2023-07-13T00:01:28;16.80;99.90
22202;DHT22;11266;51.522;6.302;2023-07-13T00:02:15;16.80;99.90
22202;DHT22;11266;51.522;6.302;2023-07-13T00:03:00;16.80;99.90
22202;DHT22;11266;51.522;6.302;2023-07-13T00:03:48;16.80;99.90
22202;DHT22;11266;51.522;6.302;2023-07-13T00:04:33;16.80;99.90
22202;DHT22;11266;51.522;6.302;2023-07-13T00:05:20;16.80;99.90
22202;DHT22;11266;51.522;6.302;2023-07-13T00:06:08;16.80;99.90
22202;DHT22;11266;51.522;6.302;2023-07-13T00:06:54;16.80;99.90
22202;DHT22;11266;51.522;6.302;2023-07-13T00:07:39;16.80;99.90
22202;DHT22;11266;51.522;6.302;2023-07-13T00:08:25;16.80;99.90
22202;DHT22;11266;51.522;6.302;2023-07-13T00:09:15;16.80;99.90
22202;DHT22;11266;51.522;6.302;2023-07-13T00:10:00;16.80;99.90
22202;DHT22;11266;51.522;6.302;2023-07-13T00:10:46;16.80;99.90
22202;DHT22;11266;51.522;6.302;2023-07-13T00:11:32;16.80;99.90
22202;DHT22;11266;51.522;6.302;2023-07-13T00:12:26;16.80;99.90
22202;DHT22;11266;51.522;6.302;2023-07-13T00:13:12;16.80;99.90
22202;DHT22;11266;51.522;6.302;2023-07-13T00:13:58;16.90;99.90
22202;DHT22;11266;51.522;6.302;2023-07-13T00:14:45;16.80;99.90
22202;DHT22;11266;51.522;6.302;2023-07-13T00:15:31;16.80;99.90
22202;DHT22;11266;51.522;6.302;2023-07-13T00:16:17;16.80;99.90
22202;DHT22;11266;51.522;6.302;2023-07-13T00:17:04;16.80;99.90
22202;DHT22;11266;51.522;6.302;2023-07-13T00:17:54;16.90;99.90
22202;DHT22;11266;51.522;6.302;2023-07-13T00:18:40;16.90;99.90
22202;DHT22;11266;51.522;6.302;2023-07-13T00:19:26;16.90;99.90
22202;DHT22;11266;51.522;6.302;2023-07-13T00:20:12;16.90;99.90
22202;DHT22;11266;51.522;6.302;2023-07-13T00:20:57;16.80;99.90
22202;DHT22;11266;51.522;6.302;2023-07-13T00:21:50;16.80;99.90
22202;DHT22;11266;51.522;6.302;2023-07-13T00:22:35;16.80;99.90
22202;DHT22;11266;51.522;6.302;2023-07-13T00:23:21;16.80;99.90
22202;DHT22;11266;51.522;6.302;2023-07-13T00:24:17;16.80;99.90
22202;DHT22;11266;51.522;6.302;2023-07-13T00:25:10;16.70;99.90
22202;DHT22;11266;51.522;6.302;2023-07-13T00:25:56;16.70;99.90
22202;DHT22;11266;51.522;6.302;2023-07-13T00:26:42;16.60;99.90
22202;DHT22;11266;51.522;6.302;2023-07-13T00:27:32;16.60;99.90
22202;DHT22;11266;51.522;6.302;2023-07-13T00:28:18;16.60;99.90
22202;DHT22;11266;51.522;6.302;2023-07-13T00:29:04;16.60;99.90
22202;DHT22;11266;51.522;6.302;2023-07-13T00:29:51;16.60;99.90
22202;DHT22;11266;51.522;6.302;2023-07-13T00:30:37;16.60;99.90
22202;DHT22;11266;51.522;6.302;2023-07-13T00:31:23;16.60;99.90
22202;DHT22;11266;51.522;6.302;2023-07-13T00:32:08;16.60;99.90
22202;DHT22;11266;51.522;6.302;2023-07-13T00:32:54;16.50;99.90
22202;DHT22;11266;51.522;6.302;2023-07-13T00:33:41;16.50;99.90
22202;DHT22;11266;51.522;6.302;2023-07-13T00:34:27;16.60;99.90
22202;DHT22;11266;51.522;6.302;2023-07-13T00:35:14;16.50;99.90
22202;DHT22;11266;51.522;6.302;2023-07-13T00:36:00;16.50;99.90
22202;DHT22;11266;51.522;6.302;2023-07-13T00:36:46;16.60;99.90
22202;DHT22;11266;51.522;6.302;2023-07-13T00:37:32;16.60;99.90
22202;DHT22;11266;51.522;6.302;2023-07-13T00:38:18;16.50;99.90
22202;DHT22;11266;51.522;6.302;2023-07-13T00:39:04;16.60;99.90
22202;DHT22;11266;51.522;6.302;2023-07-13T00:39:50;16.50;99.90
22202;DHT22;11266;51.522;6.302;2023-07-13T00:40:35;16.50;99.90
22202;DHT22;11266;51.522;6.302;2023-07-13T00:41:21;16.50;99.90
22202;DHT22;11266;51.522;6.302;2023-07-13T00:42:07;16.50;99.90
22202;DHT22;11266;51.522;6.302;2023-07-13T00:42:53;16.40;99.90
22202;DHT22;11266;51.522;6.302;2023-07-13T00:43:42;16.40;99.90
22202;DHT22;11266;51.522;6.302;2023-07-13T00:44:28;16.40;99.90
22202;DHT22;11266;51.522;6.302;2023-07-13T00:46:27;16.40;99.90
22202;DHT22;11266;51.522;6.302;2023-07-13T00:47:13;16.40;99.90
22202;DHT22;11266;51.522;6.302;2023-07-13T00:47:58;16.40;99.90
22202;DHT22;11266;51.522;6.302;2023-07-13T00:48:46;16.40;99.90
22202;DHT22;11266;51.522;6.302;2023-07-13T00:49:33;16.40;99.90
22202;DHT22;11266;51.522;6.302;2023-07-13T00:50:22;16.40;99.90
22202;DHT22;11266;51.522;6.302;2023-07-13T00:51:08;16.40;99.90
22202;DHT22;11266;51.522;6.302;2023-07-13T00:52:02;16.40;99.90
22202;DHT22;11266;51.522;6.302;2023-07-13T00:52:50;16.30;99.90
22202;DHT22;11266;51.522;6.302;2023-07-13T00:53:37;16.40;99.90
22202;DHT22;11266;51.522;6.302;2023-07-13T00:54:29;16.40;99.90
22202;DHT22;11266;51.522;6.302;2023-07-13T00:55:16;16.30;99.90
22202;DHT22;11266;51.522;6.302;2023-07-13T00:56:03;16.30;99.90
22202;DHT22;11266;51.522;6.302;2023-07-13T00:56:51;16.30;99.90
22202;DHT22;11266;51.522;6.302;2023-07-13T00:57:38;16.30;99.90
22202;DHT22;11266;51.522;6.302;2023-07-13T00:58:27;16.30;99.90
22202;DHT22;11266;51.522;6.302;2023-07-13T00:59:15;16.30;99.90
22202;DHT22;11266;51.522;6.302;2023-07-13T01:00:04;16.30;99.90
22202;DHT22;11266;51.522;6.302;2023-07-13T01:00:51;16.30;99.90
22202;DHT22;11266;51.522;6.302;2023-07-13T01:01:37;16.20;99.90
22202;DHT22;11266;51.522;6.302;2023-07-13T01:02:25;16.20;99.90
22202;DHT22;11266;51.522;6.302;2023-07-13T01:03:11;16.20;99.90
22202;DHT22;11266;51.522;6.302;2023-07-13T01:03:56;16.20;99.90
22202;DHT22;11266;51.522;6.302;2023-07-13T01:04:42;16.20;99.90
22202;DHT22;11266;51.522;6.302;2023-07-13T01:05:29;16.20;99.90
22202;DHT22;11266;51.522;6.302;2023-07-13T01:06:16;16.20;99.90
22202;DHT22;11266;51.522;6.302;2023-07-13T01:07:03;16.20;99.90
22202;DHT22;11266;51.522;6.302;2023-07-13T01:07:51;16.20;99.90
22202;DHT22;11266;51.522;6.302;2023-07-13T01:08:37;16.20;99.90
22202;DHT22;11266;51.522;6.302;2023-07-13T01:09:23;16.20;99.90
22202;DHT22;11266;51.522;6.302;2023-07-13T01:10:08;16.20;99.90
22202;DHT22;11266;51.522;6.302;2023-07-13T01:10:56;16.20;99.90
22202;DHT22;11266;51.522;6.302;2023-07-13T01:11:42;16.30;99.90
22202;DHT22;11266;51.522;6.302;2023-07-13T01:12:27;16.20;99.90
22202;DHT22;11266;51.522;6.302;2023-07-13T01:13:13;16.20;99.90
22202;DHT22;11266;51.522;6.302;2023-07-13T01:13:59;16.20;99.90
22202;DHT22;11266;51.522;6.302;2023-07-13T01:14:46;16.20;99.90
22202;DHT22;11266;51.522;6.302;2023-07-13T01:15:40;16.20;99.90
22202;DHT22;11266;51.522;6.302;2023-07-13T01:16:32;16.10;99.90
22202;DHT22;11266;51.522;6.302;2023-07-13T01:17:18;16.10;99.90
22202;DHT22;11266;51.522;6.302;2023-07-13T01:18:07;16.20;99.90
22202;DHT22;11266;51.522;6.302;2023-07-13T01:18:54;16.20;99.90
22202;DHT22;11266;51.522;6.302;2023-07-13T01:19:42;16.10;99.90
22202;DHT22;11266;51.522;6.302;2023-07-13T01:20:28;16.10;99.90
22202;DHT22;11266;51.522;6.302;2023-07-13T01:21:14;16.10;99.90
22202;DHT22;11266;51.522;6.302;2023-07-13T01:21:59;16.10;99.90
22202;DHT22;11266;51.522;6.302;2023-07-13T01:22:45;16.10;99.90
22202;DHT22;11266;51.522;6.302;2023-07-13T01:23:32;16.10;99.90
22202;DHT22;11266;51.522;6.302;2023-07-13T01:24:18;16.10;99.90
22202;DHT22;11266;51.522;6.302;2023-07-13T01:25:04;16.00;99.90
22202;DHT22;11266;51.522;6.302;2023-07-13T01:25:50;16.10;99.90
22202;DHT22;11266;51.522;6.302;2023-07-13T01:26:36;16.00;99.90
22202;DHT22;11266;51.522;6.302;2023-07-13T01:27:24;16.00;99.90
22202;DHT22;11266;51.522;6.302;2023-07-13T01:28:10;16.00;99.90
22202;DHT22;11266;51.522;6.302;2023-07-13T01:28:55;16.00;99.90
22202;DHT22;11266;51.522;6.302;2023-07-13T01:29:43;16.00;99.90
22202;DHT22;11266;51.522;6.302;2023-07-13T01:30:31;16.00;99.90
22202;DHT22;11266;51.522;6.302;2023-07-13T01:31:17;16.00;99.90
22202;DHT22;11266;51.522;6.302;2023-07-13T01:32:03;16.00;99.90
22202;DHT22;11266;51.522;6.302;2023-07-13T01:32:48;16.00;99.90
22202;DHT22;11266;51.522;6.302;2023-07-13T01:33:35;15.90;99.90
22202;DHT22;11266;51.522;6.302;2023-07-13T01:34:21;16.00;99.90
22202;DHT22;11266;51.522;6.302;2023-07-13T01:35:07;15.90;99.90
22202;DHT22;11266;51.522;6.302;2023-07-13T01:35:53;15.90;99.90
22202;DHT22;11266;51.522;6.302;2023-07-13T01:36:38;15.90;99.90
22202;DHT22;11266;51.522;6.302;2023-07-13T01:37:25;15.90;99.90
22202;DHT22;11266;51.522;6.302;2023-07-13T01:38:13;15.90;99.90
22202;DHT22;11266;51.522;6.302;2023-07-13T01:38:58;15.90;99.90
22202;DHT22;11266;51.522;6.302;2023-07-13T01:39:44;16.00;99.90
22202;DHT22;11266;51.522;6.302;2023-07-13T01:40:30;16.00;99.90
22202;DHT22;11266;51.522;6.302;2023-07-13T01:41:15;16.00;99.90
22202;DHT22;11266;51.522;6.302;2023-07-13T01:42:01;16.00;99.90
22202;DHT22;11266;51.522;6.302;2023-07-13T01:42:47;16.00;99.90
22202;DHT22;11266;51.522;6.302;2023-07-13T01:43:33;16.00;99.90
22202;DHT22;11266;51.522;6.302;2023-07-13T01:44:18;16.00;99.90
22202;DHT22;11266;51.522;6.302;2023-07-13T01:45:04;16.00;99.90
22202;DHT22;11266;51.522;6.302;2023-07-13T01:45:50;16.10;99.90
22202;DHT22;11266;51.522;6.302;2023-07-13T01:46:36;16.00;99.90
22202;DHT22;11266;51.522;6.302;2023-07-13T01:47:22;16.10;99.90
22202;DHT22;11266;51.522;6.302;2023-07-13T01:48:09;16.10;99.90
22202;DHT22;11266;51.522;6.302;2023-07-13T01:48:54;16.10;99.90
22202;DHT22;11266;51.522;6.302;2023-07-13T01:49:40;16.10;99.90
22202;DHT22;11266;51.522;6.302;2023-07-13T01:50:27;16.00;99.90
22202;DHT22;11266;51.522;6.302;2023-07-13T01:51:13;16.00;99.90
22202;DHT22;11266;51.522;6.302;2023-07-13T01:51:58;16.10;99.90
22202;DHT22;11266;51.522;6.302;2023-07-13T01:52:44;16.00;99.90
22202;DHT22;11266;51.522;6.302;2023-07-13T01:53:29;16.00;99.90
22202;DHT22;11266;51.522;6.302;2023-07-13T01:54:15;16.00;99.90
22202;DHT22;11266;51.522;6.302;2023-07-13T01:55:01;16.00;99.90
22202;DHT22;11266;51.522;6.302;2023-07-13T01:55:47;16.00;99.90
22202;DHT22;11266;51.522;6.302;2023-07-13T01:56:33;16.00;99.90
22202;DHT22;11266;51.522;6.302;2023-07-13T01:57:18;16.00;99.90
22202;DHT22;11266;51.522;6.302;2023-07-13T01:58:04;16.00;99.90
22202;DHT22;11266;51.522;6.302;2023-07-13T01:58:52;16.00;99.90
22202;DHT22;11266;51.522;6.302;2023-07-13T01:59:38;16.00;99.90
22202;DHT22;11266;51.522;6.302;2023-07-13T02:00:24;16.00;99.90
22202;DHT22;11266;51.522;6.302;2023-07-13T02:01:10;16.00;99.90
22202;DHT22;11266;51.522;6.302;2023-07-13T02:01:56;15.90;99.90
22202;DHT22;11266;51.522;6.302;2023-07-13T02:02:42;15.90;99.90
22202;DHT22;11266;51.522;6.302;2023-07-13T02:03:27;15.90;99.90
22202;DHT22;11266;51.522;6.302;2023-07-13T02:04:13;15.90;99.90
22202;DHT22;11266;51.522;6.302;2023-07-13T02:04:59;15.90;99.90
22202;DHT22;11266;51.522;6.302;2023-07-13T02:05:45;15.90;99.90
22202;DHT22;11266;51.522;6.302;2023-07-13T02:06:30;16.00;99.90
22202;DHT22;11266;51.522;6.302;2023-07-13T02:07:16;15.90;99.90
22202;DHT22;11266;51.522;6.302;2023-07-13T02:08:02;15.90;99.90
22202;DHT22;11266;51.522;6.302;2023-07-13T02:08:47;15.90;99.90
22202;DHT22;11266;51.522;6.302;2023-07-13T02:09:33;15.90;99.90
22202;DHT22;11266;51.522;6.302;2023-07-13T02:10:19;15.90;99.90
22202;DHT22;11266;51.522;6.302;2023-07-13T02:11:04;15.90;99.90
22202;DHT22;11266;51.522;6.302;2023-07-13T02:11:50;15.80;99.90
22202;DHT22;11266;51.522;6.302;2023-07-13T02:12:36;15.80;99.90
22202;DHT22;11266;51.522;6.302;2023-07-13T02:13:22;15.80;99.90
22202;DHT22;11266;51.522;6.302;2023-07-13T02:14:08;15.80;99.90
22202;DHT22;11266;51.522;6.302;2023-07-13T02:14:54;15.80;99.90
22202;DHT22;11266;51.522;6.302;2023-07-13T02:15:39;15.80;99.90
22202;DHT22;11266;51.522;6.302;2023-07-13T02:16:28;15.70;99.90
22202;DHT22;11266;51.522;6.302;2023-07-13T02:17:15;15.70;99.90
22202;DHT22;11266;51.522;6.302;2023-07-13T02:18:01;15.80;99.90
22202;DHT22;11266;51.522;6.302;2023-07-13T02:18:48;15.70;99.90
22202;DHT22;11266;51.522;6.302;2023-07-13T02:19:37;15.70;99.90
22202;DHT22;11266;51.522;6.302;2023-07-13T02:20:23;15.70;99.90
22202;DHT22;11266;51.522;6.302;2023-07-13T02:21:08;15.70;99.90
22202;DHT22;11266;51.522;6.302;2023-07-13T02:21:55;15.70;99.90
22202;DHT22;11266;51.522;6.302;2023-07-13T02:22:42;15.70;99.90
22202;DHT22;11266;51.522;6.302;2023-07-13T02:23:29;15.70;99.90
22202;DHT22;11266;51.522;6.302;2023-07-13T02:24:16;15.70;99.90
22202;DHT22;11266;51.522;6.302;2023-07-13T02:25:02;15.70;99.90
22202;DHT22;11266;51.522;6.302;2023-07-13T02:25:48;15.60;99.90
22202;DHT22;11266;51.522;6.302;2023-07-13T02:26:34;15.60;99.90
22202;DHT22;11266;51.522;6.302;2023-07-13T02:27:20;15.60;99.90
22202;DHT22;11266;51.522;6.302;2023-07-13T02:28:06;15.60;99.90
22202;DHT22;11266;51.522;6.302;2023-07-13T02:28:51;15.70;99.90
22202;DHT22;11266;51.522;6.302;2023-07-13T02:29:37;15.60;99.90
22202;DHT22;11266;51.522;6.302;2023-07-13T02:30:23;15.70;99.90
22202;DHT22;11266;51.522;6.302;2023-07-13T02:31:12;15.60;99.90
22202;DHT22;11266;51.522;6.302;2023-07-13T02:31:59;15.60;99.90
22202;DHT22;11266;51.522;6.302;2023-07-13T02:32:44;15.60;99.90
22202;DHT22;11266;51.522;6.302;2023-07-13T02:33:30;15.60;99.90
22202;DHT22;11266;51.522;6.302;2023-07-13T02:34:15;15.70;99.90
22202;DHT22;11266;51.522;6.302;2023-07-13T02:35:01;15.80;99.90
22202;DHT22;11266;51.522;6.302;2023-07-13T02:35:47;15.80;99.90
22202;DHT22;11266;51.522;6.302;2023-07-13T02:36:32;15.90;99.90
22202;DHT22;11266;51.522;6.302;2023-07-13T02:37:18;15.90;99.90
22202;DHT22;11266;51.522;6.302;2023-07-13T02:38:04;15.90;99.90
22202;DHT22;11266;51.522;6.302;2023-07-13T02:38:50;15.80;99.90
22202;DHT22;11266;51.522;6.302;2023-07-13T02:39:35;15.80;99.90
22202;DHT22;11266;51.522;6.302;2023-07-13T02:40:21;15.70;99.90
22202;DHT22;11266;51.522;6.302;2023-07-13T02:41:07;15.70;99.90
22202;DHT22;11266;51.522;6.302;2023-07-13T02:41:54;15.70;99.90
22202;DHT22;11266;51.522;6.302;2023-07-13T02:42:40;15.60;99.90
22202;DHT22;11266;51.522;6.302;2023-07-13T02:43:26;15.70;99.90
22202;DHT22;11266;51.522;6.302;2023-07-13T02:44:14;15.70;99.90
22202;DHT22;11266;51.522;6.302;2023-07-13T02:45:00;15.70;99.90
22202;DHT22;11266;51.522;6.302;2023-07-13T02:45:46;15.60;99.90
22202;DHT22;11266;51.522;6.302;2023-07-13T02:46:33;15.60;99.90
22202;DHT22;11266;51.522;6.302;2023-07-13T02:47:20;15.70;99.90
22202;DHT22;11266;51.522;6.302;2023-07-13T02:48:05;15.70;99.90
22202;DHT22;11266;51.522;6.302;2023-07-13T02:48:51;15.70;99.90
22202;DHT22;11266;51.522;6.302;2023-07-13T02:49:38;15.70;99.90
22202;DHT22;11266;51.522;6.302;2023-07-13T02:50:24;15.70;99.90
22202;DHT22;11266;51.522;6.302;2023-07-13T02:51:09;15.70;99.90
22202;DHT22;11266;51.522;6.302;2023-07-13T02:51:55;15.70;99.90
22202;DHT22;11266;51.522;6.302;2023-07-13T02:52:41;15.70;99.90
22202;DHT22;11266;51.522;6.302;2023-07-13T02:53:26;15.70;99.90
22202;DHT22;11266;51.522;6.302;2023-07-13T02:54:12;15.60;99.90
22202;DHT22;11266;51.522;6.302;2023-07-13T02:54:59;15.70;99.90
22202;DHT22;11266;51.522;6.302;2023-07-13T02:55:44;15.70;99.90
22202;DHT22;11266;51.522;6.302;2023-07-13T02:56:32;15.70;99.90
22202;DHT22;11266;51.522;6.302;2023-07-13T02:57:18;15.70;99.90
22202;DHT22;11266;51.522;6.302;2023-07-13T02:58:03;15.70;99.90
22202;DHT22;11266;51.522;6.302;2023-07-13T02:58:49;15.70;99.90
22202;DHT22;11266;51.522;6.302;2023-07-13T02:59:35;15.70;99.90
22202;DHT22;11266;51.522;6.302;2023-07-13T03:00:20;15.70;99.90
22202;DHT22;11266;51.522;6.302;2023-07-13T03:01:10;15.70;99.90
22202;DHT22;11266;51.522;6.302;2023-07-13T03:01:56;15.70;99.90
22202;DHT22;11266;51.522;6.302;2023-07-13T03:02:42;15.70;99.90
22202;DHT22;11266;51.522;6.302;2023-07-13T03:03:27;15.60;99.90
22202;DHT22;11266;51.522;6.302;2023-07-13T03:04:13;15.60;99.90
22202;DHT22;11266;51.522;6.302;2023-07-13T03:04:59;15.60;99.90
22202;DHT22;11266;51.522;6.302;2023-07-13T03:05:45;15.60;99.90
22202;DHT22;11266;51.522;6.302;2023-07-13T03:06:35;15.60;99.90
22202;DHT22;11266;51.522;6.302;2023-07-13T03:07:20;15.70;99.90
22202;DHT22;11266;51.522;6.302;2023-07-13T03:08:06;15.70;99.90
22202;DHT22;11266;51.522;6.302;2023-07-13T03:08:52;15.70;99.90
22202;DHT22;11266;51.522;6.302;2023-07-13T03:09:39;15.70;99.90
22202;DHT22;11266;51.522;6.302;2023-07-13T03:10:24;15.70;99.90
22202;DHT22;11266;51.522;6.302;2023-07-13T03:11:15;15.70;99.90
22202;DHT22;11266;51.522;6.302;2023-07-13T03:12:01;15.70;99.90
22202;DHT22;11266;51.522;6.302;2023-07-13T03:12:47;15.70;99.90
22202;DHT22;11266;51.522;6.302;2023-07-13T03:13:32;15.80;99.90
22202;DHT22;11266;51.522;6.302;2023-07-13T03:14:18;15.80;99.90
22202;DHT22;11266;51.522;6.302;2023-07-13T03:15:04;15.70;99.90
22202;DHT22;11266;51.522;6.302;2023-07-13T03:15:50;15.70;99.90
22202;DHT22;11266;51.522;6.302;2023-07-13T03:16:35;15.60;99.90
22202;DHT22;11266;51.522;6.302;2023-07-13T03:17:21;15.60;99.90
22202;DHT22;11266;51.522;6.302;2023-07-13T03:18:07;15.70;99.90
22202;DHT22;11266;51.522;6.302;2023-07-13T03:18:52;15.60;99.90
22202;DHT22;11266;51.522;6.302;2023-07-13T03:19:38;15.60;99.90
22202;DHT22;11266;51.522;6.302;2023-07-13T03:20:23;15.70;99.90
22202;DHT22;11266;51.522;6.302;2023-07-13T03:21:09;15.60;99.90
22202;DHT22;11266;51.522;6.302;2023-07-13T03:21:55;15.60;99.90
22202;DHT22;11266;51.522;6.302;2023-07-13T03:22:41;15.60;99.90
22202;DHT22;11266;51.522;6.302;2023-07-13T03:23:27;15.60;99.90
22202;DHT22;11266;51.522;6.302;2023-07-13T03:24:12;15.60;99.90
22202;DHT22;11266;51.522;6.302;2023-07-13T03:24:58;15.60;99.90
22202;DHT22;11266;51.522;6.302;2023-07-13T03:25:44;15.60;99.90
22202;DHT22;11266;51.522;6.302;2023-07-13T03:26:30;15.50;99.90
22202;DHT22;11266;51.522;6.302;2023-07-13T03:27:18;15.50;99.90
22202;DHT22;11266;51.522;6.302;2023-07-13T03:28:04;15.40;99.90
22202;DHT22;11266;51.522;6.302;2023-07-13T03:28:51;15.40;99.90
22202;DHT22;11266;51.522;6.302;2023-07-13T03:29:36;15.50;99.90
22202;DHT22;11266;51.522;6.302;2023-07-13T03:30:22;15.50;99.90
22202;DHT22;11266;51.522;6.302;2023-07-13T03:31:12;15.40;99.90
22202;DHT22;11266;51.522;6.302;2023-07-13T03:31:58;15.40;99.90
22202;DHT22;11266;51.522;6.302;2023-07-13T03:32:43;15.40;99.90
22202;DHT22;11266;51.522;6.302;2023-07-13T03:33:29;15.40;99.90
22202;DHT22;11266;51.522;6.302;2023-07-13T03:34:15;15.40;99.90
22202;DHT22;11266;51.522;6.302;2023-07-13T03:35:00;15.40;99.90
22202;DHT22;11266;51.522;6.302;2023-07-13T03:35:46;15.40;99.90
22202;DHT22;11266;51.522;6.302;2023-07-13T03:36:32;15.40;99.90
22202;DHT22;11266;51.522;6.302;2023-07-13T03:37:18;15.40;99.90
22202;DHT22;11266;51.522;6.302;2023-07-13T03:38:03;15.40;99.90
22202;DHT22;11266;51.522;6.302;2023-07-13T03:38:52;15.40;99.90
22202;DHT22;11266;51.522;6.302;2023-07-13T03:39:38;15.40;99.90
22202;DHT22;11266;51.522;6.302;2023-07-13T03:40:23;15.40;99.90
22202;DHT22;11266;51.522;6.302;2023-07-13T03:41:10;15.40;99.90
22202;DHT22;11266;51.522;6.302;2023-07-13T03:41:55;15.40;99.90
22202;DHT22;11266;51.522;6.302;2023-07-13T03:42:41;15.40;99.90
22202;DHT22;11266;51.522;6.302;2023-07-13T03:43:27;15.40;99.90
22202;DHT22;11266;51.522;6.302;2023-07-13T03:44:12;15.40;99.90
22202;DHT22;11266;51.522;6.302;2023-07-13T03:44:58;15.50;99.90
22202;DHT22;11266;51.522;6.302;2023-07-13T03:45:43;15.40;99.90
22202;DHT22;11266;51.522;6.302;2023-07-13T03:46:29;15.40;99.90
22202;DHT22;11266;51.522;6.302;2023-07-13T03:47:14;15.40;99.90
22202;DHT22;11266;51.522;6.302;2023-07-13T03:48:00;15.30;99.90
22202;DHT22;11266;51.522;6.302;2023-07-13T03:48:46;15.30;99.90
22202;DHT22;11266;51.522;6.302;2023-07-13T03:49:32;15.30;99.90
22202;DHT22;11266;51.522;6.302;2023-07-13T03:50:18;15.30;99.90
22202;DHT22;11266;51.522;6.302;2023-07-13T03:51:03;15.30;99.90
22202;DHT22;11266;51.522;6.302;2023-07-13T03:51:49;15.30;99.90
22202;DHT22;11266;51.522;6.302;2023-07-13T03:52:34;15.30;99.90
22202;DHT22;11266;51.522;6.302;2023-07-13T03:53:20;15.30;99.90
22202;DHT22;11266;51.522;6.302;2023-07-13T03:54:06;15.30;99.90
22202;DHT22;11266;51.522;6.302;2023-07-13T03:54:51;15.30;99.90
22202;DHT22;11266;51.522;6.302;2023-07-13T03:55:37;15.30;99.90
22202;DHT22;11266;51.522;6.302;2023-07-13T03:56:23;15.30;99.90
22202;DHT22;11266;51.522;6.302;2023-07-13T03:57:08;15.30;99.90
22202;DHT22;11266;51.522;6.302;2023-07-13T03:57:59;15.30;99.90
22202;DHT22;11266;51.522;6.302;2023-07-13T03:58:47;15.30;99.90
22202;DHT22;11266;51.522;6.302;2023-07-13T03:59:32;15.30;99.90
22202;DHT22;11266;51.522;6.302;2023-07-13T04:00:19;15.30;99.90
22202;DHT22;11266;51.522;6.302;2023-07-13T04:01:07;15.30;99.90
22202;DHT22;11266;51.522;6.302;2023-07-13T04:01:52;15.30;99.90
22202;DHT22;11266;51.522;6.302;2023-07-13T04:02:39;15.30;99.90
22202;DHT22;11266;51.522;6.302;2023-07-13T04:03:24;15.30;99.90
22202;DHT22;11266;51.522;6.302;2023-07-13T04:04:10;15.30;99.90
22202;DHT22;11266;51.522;6.302;2023-07-13T04:04:56;15.30;99.90
22202;DHT22;11266;51.522;6.302;2023-07-13T04:05:41;15.30;99.90
22202;DHT22;11266;51.522;6.302;2023-07-13T04:06:28;15.30;99.90
22202;DHT22;11266;51.522;6.302;2023-07-13T04:07:14;15.30;99.90
22202;DHT22;11266;51.522;6.302;2023-07-13T04:08:00;15.30;99.90
22202;DHT22;11266;51.522;6.302;2023-07-13T04:08:45;15.30;99.90
22202;DHT22;11266;51.522;6.302;2023-07-13T04:09:31;15.30;99.90
22202;DHT22;11266;51.522;6.302;2023-07-13T04:10:16;15.30;99.90
22202;DHT22;11266;51.522;6.302;2023-07-13T04:11:03;15.30;99.90
22202;DHT22;11266;51.522;6.302;2023-07-13T04:11:49;15.30;99.90
22202;DHT22;11266;51.522;6.302;2023-07-13T04:12:35;15.30;99.90
22202;DHT22;11266;51.522;6.302;2023-07-13T04:13:21;15.30;99.90
22202;DHT22;11266;51.522;6.302;2023-07-13T04:14:06;15.30;99.90
22202;DHT22;11266;51.522;6.302;2023-07-13T04:14:52;15.30;99.90
22202;DHT22;11266;51.522;6.302;2023-07-13T04:15:39;15.30;99.90
22202;DHT22;11266;51.522;6.302;2023-07-13T04:16:28;15.30;99.90
22202;DHT22;11266;51.522;6.302;2023-07-13T04:17:13;15.40;99.90
22202;DHT22;11266;51.522;6.302;2023-07-13T04:17:59;15.40;99.90
22202;DHT22;11266;51.522;6.302;2023-07-13T04:18:46;15.40;99.90
22202;DHT22;11266;51.522;6.302;2023-07-13T04:19:31;15.40;99.90
22202;DHT22;11266;51.522;6.302;2023-07-13T04:20:17;15.50;99.90
22202;DHT22;11266;51.522;6.302;2023-07-13T04:21:05;15.50;99.90
22202;DHT22;11266;51.522;6.302;2023-07-13T04:21:50;15.60;99.90
22202;DHT22;11266;51.522;6.302;2023-07-13T04:22:36;15.60;99.90
22202;DHT22;11266;51.522;6.302;2023-07-13T04:23:21;15.50;99.90
22202;DHT22;11266;51.522;6.302;2023-07-13T04:24:07;15.50;99.90
22202;DHT22;11266;51.522;6.302;2023-07-13T04:24:53;15.50;99.90
22202;DHT22;11266;51.522;6.302;2023-07-13T04:25:38;15.50;99.90
22202;DHT22;11266;51.522;6.302;2023-07-13T04:26:24;15.60;99.90
22202;DHT22;11266;51.522;6.302;2023-07-13T04:27:10;15.50;99.90
22202;DHT22;11266;51.522;6.302;2023-07-13T04:27:56;15.50;99.90
22202;DHT22;11266;51.522;6.302;2023-07-13T04:28:42;15.50;99.90
22202;DHT22;11266;51.522;6.302;2023-07-13T04:29:27;15.50;99.90
22202;DHT22;11266;51.522;6.302;2023-07-13T04:30:13;15.50;99.90
22202;DHT22;11266;51.522;6.302;2023-07-13T04:30:59;15.50;99.90
22202;DHT22;11266;51.522;6.302;2023-07-13T04:31:44;15.50;99.90
22202;DHT22;11266;51.522;6.302;2023-07-13T04:32:30;15.60;99.90
22202;DHT22;11266;51.522;6.302;2023-07-13T04:33:15;15.60;99.90
22202;DHT22;11266;51.522;6.302;2023-07-13T04:34:02;15.60;99.90
22202;DHT22;11266;51.522;6.302;2023-07-13T04:34:48;15.70;99.90
22202;DHT22;11266;51.522;6.302;2023-07-13T04:35:38;15.70;99.90
22202;DHT22;11266;51.522;6.302;2023-07-13T04:36:24;15.70;99.90
22202;DHT22;11266;51.522;6.302;2023-07-13T04:37:12;15.70;99.90
22202;DHT22;11266;51.522;6.302;2023-07-13T04:37:57;15.70;99.90
22202;DHT22;11266;51.522;6.302;2023-07-13T04:38:43;15.80;99.90
22202;DHT22;11266;51.522;6.302;2023-07-13T04:39:28;15.80;99.90
22202;DHT22;11266;51.522;6.302;2023-07-13T04:40:14;15.90;99.90
22202;DHT22;11266;51.522;6.302;2023-07-13T04:41:02;15.90;99.90
22202;DHT22;11266;51.522;6.302;2023-07-13T04:41:49;15.90;99.90
22202;DHT22;11266;51.522;6.302;2023-07-13T04:42:34;15.90;99.90
22202;DHT22;11266;51.522;6.302;2023-07-13T04:43:20;16.00;99.90
22202;DHT22;11266;51.522;6.302;2023-07-13T04:44:05;16.10;99.90
22202;DHT22;11266;51.522;6.302;2023-07-13T04:44:52;16.10;99.90
22202;DHT22;11266;51.522;6.302;2023-07-13T04:45:37;16.10;99.90
22202;DHT22;11266;51.522;6.302;2023-07-13T04:46:23;16.10;99.90
22202;DHT22;11266;51.522;6.302;2023-07-13T04:47:08;16.10;99.90
22202;DHT22;11266;51.522;6.302;2023-07-13T04:47:54;16.20;99.90
22202;DHT22;11266;51.522;6.302;2023-07-13T04:48:40;16.20;99.90
22202;DHT22;11266;51.522;6.302;2023-07-13T04:49:25;16.30;99.90
22202;DHT22;11266;51.522;6.302;2023-07-13T04:50:12;16.30;99.90
22202;DHT22;11266;51.522;6.302;2023-07-13T04:51:01;16.40;99.90
22202;DHT22;11266;51.522;6.302;2023-07-13T04:51:47;16.30;99.90
22202;DHT22;11266;51.522;6.302;2023-07-13T04:52:32;16.40;99.90
22202;DHT22;11266;51.522;6.302;2023-07-13T04:53:18;16.40;99.90
22202;DHT22;11266;51.522;6.302;2023-07-13T04:54:04;16.50;99.90